sensor_id;sensor_type;location;lat;lon;timestamp;pressure;altitude;pressure_sealevel;temperature;humidity
62126;BME280;48112;53.282;6.150;2022-11-20T00:00:22;101602.50;;;16.07;53.38
62126;BME280;48112;53.282;6.150;2022-11-20T00:01:25;101606.50;;;16.13;53.43
62126;BME280;48112;53.282;6.150;2022-11-20T00:02:28;101608.03;;;16.11;53.37
62126;BME280;48112;53.282;6.150;2022-11-20T00:03:30;101608.03;;;16.11;53.38
62126;BME280;48112;53.282;6.150;2022-11-20T00:04:32;101605.63;;;16.09;53.39
62126;BME280;48112;53.282;6.150;2022-11-20T00:05:35;101608.34;;;16.09;53.26
62126;BME280;48112;53.282;6.150;2022-11-20T00:06:37;101599.41;;;16.09;53.39
62126;BME280;48112;53.282;6.150;2022-11-20T00:07:41;101598.63;;;16.08;53.47
62126;BME280;48112;53.282;6.150;2022-11-20T00:08:43;101594.31;;;16.07;53.57
62126;BME280;48112;53.282;6.150;2022-11-20T00:09:46;101603.63;;;16.06;53.67
62126;BME280;48112;53.282;6.150;2022-11-20T00:10:48;101596.59;;;16.05;53.64
62126;BME280;48112;53.282;6.150;2022-11-20T00:11:51;101595.03;;;16.04;53.45
62126;BME280;48112;53.282;6.150;2022-11-20T00:12:52;101589.59;;;16.04;53.54
62126;BME280;48112;53.282;6.150;2022-11-20T00:13:57;101593.44;;;16.03;53.58
62126;BME280;48112;53.282;6.150;2022-11-20T00:14:59;101593.03;;;16.01;53.77
62126;BME280;48112;53.282;6.150;2022-11-20T00:16:04;101595.41;;;16.03;53.55
62126;BME280;48112;53.282;6.150;2022-11-20T00:17:06;101598.50;;;16.01;53.58
62126;BME280;48112;53.282;6.150;2022-11-20T00:18:09;101596.09;;;16.00;53.52
62126;BME280;48112;53.282;6.150;2022-11-20T00:19:10;101596.88;;;16.00;53.50
62126;BME280;48112;53.282;6.150;2022-11-20T00:20:14;101590.53;;;15.93;53.43
62126;BME280;48112;53.282;6.150;2022-11-20T00:21:17;101593.38;;;16.00;53.43
62126;BME280;48112;53.282;6.150;2022-11-20T00:22:22;101597.59;;;15.97;53.51
62126;BME280;48112;53.282;6.150;2022-11-20T00:23:25;101599.19;;;15.98;53.60
62126;BME280;48112;53.282;6.150;2022-11-20T00:24:28;101601.50;;;15.96;53.38
62126;BME280;48112;53.282;6.150;2022-11-20T00:25:30;101597.59;;;15.97;53.56
62126;BME280;48112;53.282;6.150;2022-11-20T00:26:33;101599.91;;;15.95;53.49
62126;BME280;48112;53.282;6.150;2022-11-20T00:27:35;101594.44;;;15.95;53.49
62126;BME280;48112;53.282;6.150;2022-11-20T00:28:37;101603.78;;;15.94;53.77
62126;BME280;48112;53.282;6.150;2022-11-20T00:29:39;101601.06;;;15.94;53.40
62126;BME280;48112;53.282;6.150;2022-11-20T00:30:42;101599.50;;;15.93;53.48
62126;BME280;48112;53.282;6.150;2022-11-20T00:31:43;101599.50;;;15.93;53.66
62126;BME280;48112;53.282;6.150;2022-11-20T00:32:46;101596.31;;;15.91;53.49
62126;BME280;48112;53.282;6.150;2022-11-20T00:33:48;101599.84;;;15.92;53.36
62126;BME280;48112;53.282;6.150;2022-11-20T00:34:51;101605.28;;;15.92;53.48
62126;BME280;48112;53.282;6.150;2022-11-20T00:35:53;101594.31;;;15.88;53.55
62126;BME280;48112;53.282;6.150;2022-11-20T00:36:56;101598.25;;;15.91;53.57
62126;BME280;48112;53.282;6.150;2022-11-20T00:37:57;101595.88;;;15.89;53.48
62126;BME280;48112;53.282;6.150;2022-11-20T00:39:02;101593.97;;;15.90;53.47
62126;BME280;48112;53.282;6.150;2022-11-20T00:40:04;101589.63;;;15.89;53.41
62126;BME280;48112;53.282;6.150;2022-11-20T00:41:09;101591.59;;;15.88;53.51
62126;BME280;48112;53.282;6.150;2022-11-20T00:42:11;101595.44;;;15.87;53.56
62126;BME280;48112;53.282;6.150;2022-11-20T00:43:14;101591.94;;;15.87;53.65
62126;BME280;48112;53.282;6.150;2022-11-20T00:44:15;101589.59;;;15.85;53.28
62126;BME280;48112;53.282;6.150;2022-11-20T00:45:18;101598.53;;;15.86;53.29
62126;BME280;48112;53.282;6.150;2022-11-20T00:46:22;101587.63;;;15.86;53.42
62126;BME280;48112;53.282;6.150;2022-11-20T00:47:25;101593.44;;;15.84;53.39
62126;BME280;48112;53.282;6.150;2022-11-20T00:48:27;101596.16;;;15.84;53.56
62126;BME280;48112;53.282;6.150;2022-11-20T00:49:30;101591.88;;;15.83;53.60
62126;BME280;48112;53.282;6.150;2022-11-20T00:50:31;101591.88;;;15.83;53.66
62126;BME280;48112;53.282;6.150;2022-11-20T00:51:34;101590.31;;;15.82;53.69
62126;BME280;48112;53.282;6.150;2022-11-20T00:52:36;101586.44;;;15.83;53.38
62126;BME280;48112;53.282;6.150;2022-11-20T00:53:39;101582.91;;;15.83;53.32
62126;BME280;48112;53.282;6.150;2022-11-20T00:54:42;101591.06;;;15.83;53.40
62126;BME280;48112;53.282;6.150;2022-11-20T00:55:52;101588.63;;;15.78;53.51
62126;BME280;48112;53.282;6.150;2022-11-20T00:56:54;101582.41;;;15.77;53.67
62126;BME280;48112;53.282;6.150;2022-11-20T00:57:57;101590.59;;;15.77;53.53
62126;BME280;48112;53.282;6.150;2022-11-20T00:59:01;101580.47;;;15.78;53.69
62126;BME280;48112;53.282;6.150;2022-11-20T01:00:06;101586.69;;;15.78;53.68
62126;BME280;48112;53.282;6.150;2022-11-20T01:01:09;101583.19;;;15.78;53.46
62126;BME280;48112;53.282;6.150;2022-11-20T01:02:12;101580.06;;;15.76;53.57
62126;BME280;48112;53.282;6.150;2022-11-20T01:03:14;101578.91;;;15.77;53.59
62126;BME280;48112;53.282;6.150;2022-11-20T01:04:17;101575.38;;;15.76;53.66
62126;BME280;48112;53.282;6.150;2022-11-20T01:05:18;101579.25;;;15.75;53.42
62126;BME280;48112;53.282;6.150;2022-11-20T01:06:23;101577.34;;;15.76;53.49
62126;BME280;48112;53.282;6.150;2022-11-20T01:07:25;101583.91;;;15.75;53.66
62126;BME280;48112;53.282;6.150;2022-11-20T01:08:31;101579.97;;;15.72;53.45
62126;BME280;48112;53.282;6.150;2022-11-20T01:09:33;101585.41;;;15.72;53.54
62126;BME280;48112;53.282;6.150;2022-11-20T01:10:37;101585.84;;;15.74;53.71
62126;BME280;48112;53.282;6.150;2022-11-20T01:11:41;101575.25;;;15.69;53.60
62126;BME280;48112;53.282;6.150;2022-11-20T01:12:44;101583.84;;;15.71;53.76
62126;BME280;48112;53.282;6.150;2022-11-20T01:14:10;101573.66;;;15.68;53.74
62126;BME280;48112;53.282;6.150;2022-11-20T01:15:13;101579.09;;;15.68;53.78
62126;BME280;48112;53.282;6.150;2022-11-20T01:16:17;101577.16;;;15.69;53.56
62126;BME280;48112;53.282;6.150;2022-11-20T01:17:19;101578.31;;;15.68;53.55
62126;BME280;48112;53.282;6.150;2022-11-20T01:18:21;101565.47;;;15.68;53.41
62126;BME280;48112;53.282;6.150;2022-11-20T01:19:24;101579.09;;;15.68;53.69
62126;BME280;48112;53.282;6.150;2022-11-20T01:20:26;101579.88;;;15.69;53.78
62126;BME280;48112;53.282;6.150;2022-11-20T01:21:31;101569.00;;;15.69;53.60
62126;BME280;48112;53.282;6.150;2022-11-20T01:22:33;101577.53;;;15.67;53.68
62126;BME280;48112;53.282;6.150;2022-11-20T01:23:38;101572.06;;;15.67;53.58
62126;BME280;48112;53.282;6.150;2022-11-20T01:24:40;101565.06;;;15.66;53.76
62126;BME280;48112;53.282;6.150;2022-11-20T01:25:44;101565.06;;;15.66;53.77
62126;BME280;48112;53.282;6.150;2022-11-20T01:26:47;101565.84;;;15.67;53.74
62126;BME280;48112;53.282;6.150;2022-11-20T01:27:50;101560.75;;;15.65;53.59
62126;BME280;48112;53.282;6.150;2022-11-20T01:28:53;101574.00;;;15.67;53.60
62126;BME280;48112;53.282;6.150;2022-11-20T01:29:56;101568.91;;;15.65;53.69
62126;BME280;48112;53.282;6.150;2022-11-20T01:31:10;101569.63;;;15.62;53.41
62126;BME280;48112;53.282;6.150;2022-11-20T01:32:14;101562.19;;;15.59;53.41
62126;BME280;48112;53.282;6.150;2022-11-20T01:33:16;101564.97;;;15.63;53.74
62126;BME280;48112;53.282;6.150;2022-11-20T01:34:20;101566.91;;;15.62;53.85
62126;BME280;48112;53.282;6.150;2022-11-20T01:35:23;101566.91;;;15.62;53.83
62126;BME280;48112;53.282;6.150;2022-11-20T01:36:27;101565.78;;;15.63;53.56
62126;BME280;48112;53.282;6.150;2022-11-20T01:37:30;101569.63;;;15.62;53.73
62126;BME280;48112;53.282;6.150;2022-11-20T01:38:32;101564.97;;;15.63;53.71
62126;BME280;48112;53.282;6.150;2022-11-20T01:39:35;101564.19;;;15.62;53.76
62126;BME280;48112;53.282;6.150;2022-11-20T01:40:37;101566.91;;;15.62;53.74
62126;BME280;48112;53.282;6.150;2022-11-20T01:41:41;101558.75;;;15.62;53.76
62126;BME280;48112;53.282;6.150;2022-11-20T01:43:12;101553.88;;;15.37;54.20
62126;BME280;48112;53.282;6.150;2022-11-20T01:44:47;101555.59;;;15.41;54.15
62126;BME280;48112;53.282;6.150;2022-11-20T01:46:12;101553.72;;;15.45;54.01
62126;BME280;48112;53.282;6.150;2022-11-20T01:47:17;101549.13;;;15.49;54.06
62126;BME280;48112;53.282;6.150;2022-11-20T01:48:23;101549.56;;;15.51;53.75
62126;BME280;48112;53.282;6.150;2022-11-20T01:49:30;101545.72;;;15.52;53.93
62126;BME280;48112;53.282;6.150;2022-11-20T01:50:36;101549.56;;;15.51;53.84
62126;BME280;48112;53.282;6.150;2022-11-20T01:51:40;101534.31;;;15.47;53.76
62126;BME280;48112;53.282;6.150;2022-11-20T01:52:46;101543.00;;;15.52;53.65
62126;BME280;48112;53.282;6.150;2022-11-20T01:53:52;101543.00;;;15.52;53.95
62126;BME280;48112;53.282;6.150;2022-11-20T01:55:02;101535.94;;;15.51;53.80
62126;BME280;48112;53.282;6.150;2022-11-20T01:56:07;101546.47;;;15.53;53.89
62126;BME280;48112;53.282;6.150;2022-11-20T01:57:13;101545.72;;;15.52;53.84
62126;BME280;48112;53.282;6.150;2022-11-20T01:58:16;101535.94;;;15.51;53.82
62126;BME280;48112;53.282;6.150;2022-11-20T01:59:22;101535.16;;;15.51;53.81
62126;BME280;48112;53.282;6.150;2022-11-20T02:00:25;101535.94;;;15.51;53.75
62126;BME280;48112;53.282;6.150;2022-11-20T02:01:28;101536.75;;;15.52;53.90
62126;BME280;48112;53.282;6.150;2022-11-20T02:02:30;101534.81;;;15.52;53.82
62126;BME280;48112;53.282;6.150;2022-11-20T02:03:32;101528.94;;;15.50;53.70
62126;BME280;48112;53.282;6.150;2022-11-20T02:04:35;101529.38;;;15.52;53.59
62126;BME280;48112;53.282;6.150;2022-11-20T02:05:41;101521.22;;;15.52;53.65
62126;BME280;48112;53.282;6.150;2022-11-20T02:06:48;101522.34;;;15.51;53.90
62126;BME280;48112;53.282;6.150;2022-11-20T02:07:52;101523.50;;;15.50;53.91
62126;BME280;48112;53.282;6.150;2022-11-20T02:08:55;101518.06;;;15.50;53.83
62126;BME280;48112;53.282;6.150;2022-11-20T02:09:58;101518.81;;;15.51;53.83
62126;BME280;48112;53.282;6.150;2022-11-20T02:11:00;101512.63;;;15.50;53.67
62126;BME280;48112;53.282;6.150;2022-11-20T02:12:03;101518.81;;;15.51;53.87
62126;BME280;48112;53.282;6.150;2022-11-20T02:13:07;101518.06;;;15.50;53.64
62126;BME280;48112;53.282;6.150;2022-11-20T02:14:28;101519.91;;;15.46;53.87
62126;BME280;48112;53.282;6.150;2022-11-20T02:15:32;101511.38;;;15.48;53.61
62126;BME280;48112;53.282;6.150;2022-11-20T02:16:36;101509.44;;;15.48;53.90
62126;BME280;48112;53.282;6.150;2022-11-20T02:17:40;101509.44;;;15.48;53.88
62126;BME280;48112;53.282;6.150;2022-11-20T02:18:43;101509.44;;;15.48;53.87
62126;BME280;48112;53.282;6.150;2022-11-20T02:19:46;101510.25;;;15.49;53.95
62126;BME280;48112;53.282;6.150;2022-11-20T02:20:49;101510.25;;;15.49;53.68
62126;BME280;48112;53.282;6.150;2022-11-20T02:22:00;101524.97;;;15.48;53.74
62126;BME280;48112;53.282;6.150;2022-11-20T02:23:08;101524.56;;;15.46;53.61
62126;BME280;48112;53.282;6.150;2022-11-20T02:24:15;101522.63;;;15.46;53.69
62126;BME280;48112;53.282;6.150;2022-11-20T02:25:19;101512.81;;;15.42;53.66
62126;BME280;48112;53.282;6.150;2022-11-20T02:26:23;101523.41;;;15.47;53.95
62126;BME280;48112;53.282;6.150;2022-11-20T02:27:26;101524.22;;;15.47;53.69
62126;BME280;48112;53.282;6.150;2022-11-20T02:28:28;101526.94;;;15.47;53.67
62126;BME280;48112;53.282;6.150;2022-11-20T02:29:35;101516.06;;;15.47;53.58
62126;BME280;48112;53.282;6.150;2022-11-20T02:30:38;101519.13;;;15.46;53.84
62126;BME280;48112;53.282;6.150;2022-11-20T02:31:42;101517.19;;;15.46;53.82
62126;BME280;48112;53.282;6.150;2022-11-20T02:32:45;101519.13;;;15.46;53.77
62126;BME280;48112;53.282;6.150;2022-11-20T02:33:47;101505.53;;;15.46;53.72
62126;BME280;48112;53.282;6.150;2022-11-20T02:34:50;101510.97;;;15.46;53.97
62126;BME280;48112;53.282;6.150;2022-11-20T02:35:52;101510.97;;;15.46;53.82
62126;BME280;48112;53.282;6.150;2022-11-20T02:36:55;101511.72;;;15.46;53.56
62126;BME280;48112;53.282;6.150;2022-11-20T02:38:01;101506.28;;;15.46;53.83
62126;BME280;48112;53.282;6.150;2022-11-20T02:39:05;101508.59;;;15.44;53.89
62126;BME280;48112;53.282;6.150;2022-11-20T02:40:09;101506.28;;;15.46;53.57
62126;BME280;48112;53.282;6.150;2022-11-20T02:41:12;101508.59;;;15.44;53.90
62126;BME280;48112;53.282;6.150;2022-11-20T02:42:14;101507.00;;;15.43;53.58
62126;BME280;48112;53.282;6.150;2022-11-20T02:43:17;101503.16;;;15.44;53.59
62126;BME280;48112;53.282;6.150;2022-11-20T02:44:19;101505.09;;;15.44;53.60
62126;BME280;48112;53.282;6.150;2022-11-20T02:45:22;101514.03;;;15.44;53.76
62126;BME280;48112;53.282;6.150;2022-11-20T02:46:24;101498.44;;;15.41;53.62
62126;BME280;48112;53.282;6.150;2022-11-20T02:47:27;101508.59;;;15.44;53.71
62126;BME280;48112;53.282;6.150;2022-11-20T02:48:29;101506.66;;;15.45;53.80
62126;BME280;48112;53.282;6.150;2022-11-20T02:49:34;101506.59;;;15.41;53.66
62126;BME280;48112;53.282;6.150;2022-11-20T02:50:38;101500.81;;;15.43;53.58
62126;BME280;48112;53.282;6.150;2022-11-20T02:51:40;101509.72;;;15.43;53.80
62126;BME280;48112;53.282;6.150;2022-11-20T02:52:43;101501.56;;;15.43;53.52
62126;BME280;48112;53.282;6.150;2022-11-20T02:53:45;101504.28;;;15.43;53.62
62126;BME280;48112;53.282;6.150;2022-11-20T02:54:47;101507.00;;;15.43;53.74
62126;BME280;48112;53.282;6.150;2022-11-20T02:55:51;101503.16;;;15.44;53.52
62126;BME280;48112;53.282;6.150;2022-11-20T02:56:53;101504.28;;;15.43;53.55
62126;BME280;48112;53.282;6.150;2022-11-20T02:57:55;101503.53;;;15.43;53.60
62126;BME280;48112;53.282;6.150;2022-11-20T02:58:58;101500.81;;;15.43;53.68
62126;BME280;48112;53.282;6.150;2022-11-20T03:00:00;101501.56;;;15.43;53.43
62126;BME280;48112;53.282;6.150;2022-11-20T03:01:03;101507.00;;;15.43;53.52
62126;BME280;48112;53.282;6.150;2022-11-20T03:02:05;101500.81;;;15.43;53.54
62126;BME280;48112;53.282;6.150;2022-11-20T03:03:08;101495.72;;;15.41;53.54
62126;BME280;48112;53.282;6.150;2022-11-20T03:04:09;101495.72;;;15.41;53.61
62126;BME280;48112;53.282;6.150;2022-11-20T03:05:12;101506.25;;;15.43;53.63
62126;BME280;48112;53.282;6.150;2022-11-20T03:06:14;101501.56;;;15.43;53.38
62126;BME280;48112;53.282;6.150;2022-11-20T03:07:17;101500.00;;;15.42;53.54
62126;BME280;48112;53.282;6.150;2022-11-20T03:08:19;101493.69;;;15.38;53.58
62126;BME280;48112;53.282;6.150;2022-11-20T03:09:22;101493.75;;;15.42;53.68
62126;BME280;48112;53.282;6.150;2022-11-20T03:10:24;101498.44;;;15.41;53.44
62126;BME280;48112;53.282;6.150;2022-11-20T03:11:29;101494.13;;;15.40;53.56
62126;BME280;48112;53.282;6.150;2022-11-20T03:12:30;101494.13;;;15.40;53.59
62126;BME280;48112;53.282;6.150;2022-11-20T03:13:33;101496.84;;;15.40;53.48
62126;BME280;48112;53.282;6.150;2022-11-20T03:14:36;101488.69;;;15.40;53.42
62126;BME280;48112;53.282;6.150;2022-11-20T03:15:38;101481.31;;;15.41;53.69
62126;BME280;48112;53.282;6.150;2022-11-20T03:16:41;101481.19;;;15.37;53.49
62126;BME280;48112;53.282;6.150;2022-11-20T03:17:43;101482.78;;;15.38;53.60
62126;BME280;48112;53.282;6.150;2022-11-20T03:18:46;101485.16;;;15.40;53.67
62126;BME280;48112;53.282;6.150;2022-11-20T03:19:49;101483.13;;;15.37;53.39
62126;BME280;48112;53.282;6.150;2022-11-20T03:20:56;101486.63;;;15.37;53.68
62126;BME280;48112;53.282;6.150;2022-11-20T03:21:59;101483.47;;;15.35;53.48
62126;BME280;48112;53.282;6.150;2022-11-20T03:23:02;101487.13;;;15.39;53.50
62126;BME280;48112;53.282;6.150;2022-11-20T03:24:05;101483.59;;;15.39;53.59
62126;BME280;48112;53.282;6.150;2022-11-20T03:25:08;101480.88;;;15.39;53.36
62126;BME280;48112;53.282;6.150;2022-11-20T03:26:12;101470.31;;;15.37;53.49
62126;BME280;48112;53.282;6.150;2022-11-20T03:27:16;101476.22;;;15.39;53.43
62126;BME280;48112;53.282;6.150;2022-11-20T03:28:19;101471.91;;;15.38;53.38
62126;BME280;48112;53.282;6.150;2022-11-20T03:29:21;101469.19;;;15.38;53.64
62126;BME280;48112;53.282;6.150;2022-11-20T03:30:24;101467.16;;;15.35;53.38
62126;BME280;48112;53.282;6.150;2022-11-20T03:31:33;101467.59;;;15.37;53.72
62126;BME280;48112;53.282;6.150;2022-11-20T03:32:36;101471.47;;;15.36;53.78
62126;BME280;48112;53.282;6.150;2022-11-20T03:33:38;101462.16;;;15.37;53.65
62126;BME280;48112;53.282;6.150;2022-11-20T03:34:41;101463.31;;;15.36;53.62
62126;BME280;48112;53.282;6.150;2022-11-20T03:35:43;101455.00;;;15.29;53.53
62126;BME280;48112;53.282;6.150;2022-11-20T03:36:46;101457.88;;;15.36;53.69
62126;BME280;48112;53.282;6.150;2022-11-20T03:37:47;101455.91;;;15.37;53.30
62126;BME280;48112;53.282;6.150;2022-11-20T03:38:50;101452.44;;;15.36;53.67
62126;BME280;48112;53.282;6.150;2022-11-20T03:39:52;101449.72;;;15.36;53.63
62126;BME280;48112;53.282;6.150;2022-11-20T03:40:58;101444.97;;;15.33;53.57
62126;BME280;48112;53.282;6.150;2022-11-20T03:42:00;101446.19;;;15.36;53.68
62126;BME280;48112;53.282;6.150;2022-11-20T03:43:04;101446.97;;;15.36;53.47
62126;BME280;48112;53.282;6.150;2022-11-20T03:44:08;101445.38;;;15.35;53.43
62126;BME280;48112;53.282;6.150;2022-11-20T03:45:11;101443.81;;;15.34;53.51
62126;BME280;48112;53.282;6.150;2022-11-20T03:46:13;101438.38;;;15.34;53.50
62126;BME280;48112;53.282;6.150;2022-11-20T03:47:15;101429.06;;;15.35;53.67
62126;BME280;48112;53.282;6.150;2022-11-20T03:48:17;101429.88;;;15.36;53.44
62126;BME280;48112;53.282;6.150;2022-11-20T03:49:20;101421.69;;;15.36;53.44
62126;BME280;48112;53.282;6.150;2022-11-20T03:50:23;101422.84;;;15.35;53.60
62126;BME280;48112;53.282;6.150;2022-11-20T03:51:26;101418.19;;;15.35;53.59
62126;BME280;48112;53.282;6.150;2022-11-20T03:52:29;101418.53;;;15.34;53.60
62126;BME280;48112;53.282;6.150;2022-11-20T03:53:31;101416.63;;;15.34;53.43
62126;BME280;48112;53.282;6.150;2022-11-20T03:54:33;101422.06;;;15.34;53.68
62126;BME280;48112;53.282;6.150;2022-11-20T03:55:35;101427.50;;;15.34;53.51
62126;BME280;48112;53.282;6.150;2022-11-20T03:56:38;101418.53;;;15.34;53.62
62126;BME280;48112;53.282;6.150;2022-11-20T03:57:40;101421.25;;;15.34;53.59
62126;BME280;48112;53.282;6.150;2022-11-20T03:58:44;101430.22;;;15.34;53.62
62126;BME280;48112;53.282;6.150;2022-11-20T03:59:46;101420.50;;;15.33;53.63
62126;BME280;48112;53.282;6.150;2022-11-20T04:00:49;101425.94;;;15.33;53.58
62126;BME280;48112;53.282;6.150;2022-11-20T04:01:51;101426.69;;;15.34;53.53
62126;BME280;48112;53.282;6.150;2022-11-20T04:02:57;101428.66;;;15.33;53.52
62126;BME280;48112;53.282;6.150;2022-11-20T04:03:59;101413.34;;;15.25;53.52
62126;BME280;48112;53.282;6.150;2022-11-20T04:05:02;101424.34;;;15.32;53.46
62126;BME280;48112;53.282;6.150;2022-11-20T04:06:05;101421.63;;;15.32;53.43
62126;BME280;48112;53.282;6.150;2022-11-20T04:07:09;101422.78;;;15.31;53.57
62126;BME280;48112;53.282;6.150;2022-11-20T04:08:11;101418.81;;;15.29;53.63
62126;BME280;48112;53.282;6.150;2022-11-20T04:09:14;101428.22;;;15.31;53.73
62126;BME280;48112;53.282;6.150;2022-11-20T04:10:17;101424.69;;;15.31;53.37
62126;BME280;48112;53.282;6.150;2022-11-20T04:11:21;101422.78;;;15.31;53.39
62126;BME280;48112;53.282;6.150;2022-11-20T04:12:23;101415.75;;;15.30;53.55
62126;BME280;48112;53.282;6.150;2022-11-20T04:13:26;101420.78;;;15.28;53.42
62126;BME280;48112;53.282;6.150;2022-11-20T04:14:29;101414.63;;;15.31;53.33
62126;BME280;48112;53.282;6.150;2022-11-20T04:15:32;101413.34;;;15.25;53.61
62126;BME280;48112;53.282;6.150;2022-11-20T04:16:39;101421.53;;;15.29;53.51
62126;BME280;48112;53.282;6.150;2022-11-20T04:17:41;101419.63;;;15.29;53.63
62126;BME280;48112;53.282;6.150;2022-11-20T04:18:43;101414.19;;;15.29;53.50
62126;BME280;48112;53.282;6.150;2022-11-20T04:19:46;101407.94;;;15.29;53.41
62126;BME280;48112;53.282;6.150;2022-11-20T04:20:49;101408.75;;;15.29;53.49
62126;BME280;48112;53.282;6.150;2022-11-20T04:21:51;101412.63;;;15.28;53.29
62126;BME280;48112;53.282;6.150;2022-11-20T04:22:54;101407.16;;;15.28;53.51
62126;BME280;48112;53.282;6.150;2022-11-20T04:23:56;101410.66;;;15.29;53.54
62126;BME280;48112;53.282;6.150;2022-11-20T04:24:59;101407.53;;;15.27;53.57
62126;BME280;48112;53.282;6.150;2022-11-20T04:26:02;101404.44;;;15.28;53.39
62126;BME280;48112;53.282;6.150;2022-11-20T04:27:05;101401.72;;;15.28;53.48
62126;BME280;48112;53.282;6.150;2022-11-20T04:28:07;101401.72;;;15.28;53.58
62126;BME280;48112;53.282;6.150;2022-11-20T04:29:11;101402.50;;;15.29;53.35
62126;BME280;48112;53.282;6.150;2022-11-20T04:30:17;101402.84;;;15.27;53.81
62126;BME280;48112;53.282;6.150;2022-11-20T04:31:22;101400.13;;;15.27;53.36
62126;BME280;48112;53.282;6.150;2022-11-20T04:32:24;101402.84;;;15.27;53.68
62126;BME280;48112;53.282;6.150;2022-11-20T04:33:27;101395.84;;;15.26;53.71
62126;BME280;48112;53.282;6.150;2022-11-20T04:34:34;101397.41;;;15.27;53.66
62126;BME280;48112;53.282;6.150;2022-11-20T04:35:37;101392.34;;;15.26;53.49
62126;BME280;48112;53.282;6.150;2022-11-20T04:36:39;101391.56;;;15.25;53.43
62126;BME280;48112;53.282;6.150;2022-11-20T04:37:42;101391.22;;;15.27;53.54
62126;BME280;48112;53.282;6.150;2022-11-20T04:38:44;101389.25;;;15.27;53.37
62126;BME280;48112;53.282;6.150;2022-11-20T04:39:47;101384.53;;;15.24;53.54
62126;BME280;48112;53.282;6.150;2022-11-20T04:40:48;101384.97;;;15.26;53.50
62126;BME280;48112;53.282;6.150;2022-11-20T04:41:51;101378.25;;;15.20;53.49
62126;BME280;48112;53.282;6.150;2022-11-20T04:43:13;101386.84;;;15.22;53.44
62126;BME280;48112;53.282;6.150;2022-11-20T04:44:16;101382.16;;;15.23;53.65
62126;BME280;48112;53.282;6.150;2022-11-20T04:45:19;101386.13;;;15.25;53.58
62126;BME280;48112;53.282;6.150;2022-11-20T04:46:22;101391.13;;;15.23;53.32
62126;BME280;48112;53.282;6.150;2022-11-20T04:47:24;101390.78;;;15.25;53.50
62126;BME280;48112;53.282;6.150;2022-11-20T04:48:27;101384.53;;;15.24;53.48
62126;BME280;48112;53.282;6.150;2022-11-20T04:49:29;101389.97;;;15.24;53.50
62126;BME280;48112;53.282;6.150;2022-11-20T04:50:33;101382.97;;;15.23;53.59
62126;BME280;48112;53.282;6.150;2022-11-20T04:51:35;101387.25;;;15.24;53.53
62126;BME280;48112;53.282;6.150;2022-11-20T04:52:37;101374.38;;;15.21;53.63
62126;BME280;48112;53.282;6.150;2022-11-20T04:53:39;101377.53;;;15.23;53.76
62126;BME280;48112;53.282;6.150;2022-11-20T04:54:42;101377.53;;;15.23;53.55
62126;BME280;48112;53.282;6.150;2022-11-20T04:55:44;101380.59;;;15.22;53.64
62126;BME280;48112;53.282;6.150;2022-11-20T04:56:47;101372.81;;;15.20;53.42
62126;BME280;48112;53.282;6.150;2022-11-20T04:57:50;101377.53;;;15.23;53.73
62126;BME280;48112;53.282;6.150;2022-11-20T04:58:53;101376.72;;;15.23;53.54
62126;BME280;48112;53.282;6.150;2022-11-20T04:59:54;101378.69;;;15.22;53.42
62126;BME280;48112;53.282;6.150;2022-11-20T05:01:02;101374.38;;;15.21;53.21
62126;BME280;48112;53.282;6.150;2022-11-20T05:02:04;101375.16;;;15.22;53.50
62126;BME280;48112;53.282;6.150;2022-11-20T05:03:07;101374.00;;;15.23;53.41
62126;BME280;48112;53.282;6.150;2022-11-20T05:04:09;101375.97;;;15.22;53.52
62126;BME280;48112;53.282;6.150;2022-11-20T05:05:11;101379.44;;;15.23;53.37
62126;BME280;48112;53.282;6.150;2022-11-20T05:06:16;101382.97;;;15.23;53.32
62126;BME280;48112;53.282;6.150;2022-11-20T05:07:19;101382.53;;;15.21;53.67
62126;BME280;48112;53.282;6.150;2022-11-20T05:08:21;101378.69;;;15.22;53.11
62126;BME280;48112;53.282;6.150;2022-11-20T05:09:24;101385.25;;;15.21;53.42
62126;BME280;48112;53.282;6.150;2022-11-20T05:10:26;101386.03;;;15.22;53.47
62126;BME280;48112;53.282;6.150;2022-11-20T05:11:29;101379.81;;;15.21;53.68
62126;BME280;48112;53.282;6.150;2022-11-20T05:12:31;101381.41;;;15.22;53.48
62126;BME280;48112;53.282;6.150;2022-11-20T05:13:34;101385.25;;;15.21;53.55
62126;BME280;48112;53.282;6.150;2022-11-20T05:14:36;101379.81;;;15.21;53.38
62126;BME280;48112;53.282;6.150;2022-11-20T05:15:38;101379.00;;;15.21;53.59
62126;BME280;48112;53.282;6.150;2022-11-20T05:16:41;101382.53;;;15.21;53.60
62126;BME280;48112;53.282;6.150;2022-11-20T05:17:47;101378.25;;;15.20;53.37
62126;BME280;48112;53.282;6.150;2022-11-20T05:18:49;101372.00;;;15.20;53.45
62126;BME280;48112;53.282;6.150;2022-11-20T05:19:52;101373.94;;;15.19;53.32
62126;BME280;48112;53.282;6.150;2022-11-20T05:20:55;101379.00;;;15.21;53.42
62126;BME280;48112;53.282;6.150;2022-11-20T05:21:58;101375.88;;;15.19;53.41
62126;BME280;48112;53.282;6.150;2022-11-20T05:22:59;101372.00;;;15.20;53.30
62126;BME280;48112;53.282;6.150;2022-11-20T05:24:02;101379.38;;;15.19;53.09
62126;BME280;48112;53.282;6.150;2022-11-20T05:25:05;101366.09;;;15.14;53.57
62126;BME280;48112;53.282;6.150;2022-11-20T05:26:13;101380.53;;;15.18;53.36
62126;BME280;48112;53.282;6.150;2022-11-20T05:27:15;101372.38;;;15.18;53.68
62126;BME280;48112;53.282;6.150;2022-11-20T05:28:18;101377.81;;;15.18;53.38
62126;BME280;48112;53.282;6.150;2022-11-20T05:29:20;101373.94;;;15.19;53.34
62126;BME280;48112;53.282;6.150;2022-11-20T05:30:23;101371.56;;;15.18;53.47
62126;BME280;48112;53.282;6.150;2022-11-20T05:31:25;101373.53;;;15.17;53.28
62126;BME280;48112;53.282;6.150;2022-11-20T05:32:30;101375.88;;;15.19;53.42